Owings, MD

7:58 AM EDT on July 25, 2016 (GMT -0400)
Victoria Station | | Change Station
Active Advisory: Heat Advisory

Elev 157 ft 38.69 °N, 76.62 °W | Updated 6 minutes ago

Clear
Clear
78.6 °F
Feels Like 82 °F
N
0.0
Wind Variable Wind from SE
Gusts 0.0 mph

Today
High -- | Low -- °F
--% Chance of Precip.
Yesterday
High -- | Low -- °F
Precip. -- in
Pressure 29.99 in
Visibility 10.0 miles
Clouds Clear
Heat Index 82 °F
Dew Point 78 °F
Humidity 98%
Rainfall 0.35 in
Snow Depth Not available.
6:02 AM 8:23 PM
Waning Gibbous, 66% visible
METAR KADW 251058Z AUTO 23004KT 10SM CLR 27/25 A2997 RMK AO2 SLP153 T02650250
Pressure 29.99 in
Visibility 10.0 miles
Clouds Clear
Heat Index 82 °F
Dew Point 78 °F
Humidity 98%
Rainfall 0.35 in
Snow Depth Not available.
6:02 AM 8:23 PM
Waning Gibbous, 66% visible
METAR KADW 251058Z AUTO 23004KT 10SM CLR 27/25 A2997 RMK AO2 SLP153 T02650250

10-Day Weather Forecast

Almanac

Astronomy

Jul. 25, 2016 Rise Set
Actual Time
Civil Twilight
Nautical Twilight
Astronomical Twilight
Moon
Length of Visible Light
Length of Day
Tomorrow will be .
, % of the Moon is Illuminated

Today's Extremes

State Highs State Lows

Community

WunderPhotos

Upload Photos

1,927,293 photos uploaded!

WunderBlog® & News

Nearby

Air Quality

  Air Quality AQ Index Pollutant
Not available.

Snow Depth

Station Depth Elevation

Earthquake Activity

City Distance Mag. Time & Date
Minimum magnitude displayed is 2.5.

Coastal Water Temperatures

Place Temperature

Stations

Nearby Weather Stations

Station Location Temp. Windchill Dew Point Humidity Wind Precip. Elev Updated Type
                   

Watches & Warnings

Heat Advisory
Issued: 4:44 AM EDT Jul. 25, 2016 – National Weather Service

... Heat advisory remains in effect from noon today to 8 PM EDT
this evening...

* heat index values... up to 108 due to temperatures between 95 to
100... and dewpoints in the lower 70s.

* Impacts... risk of heat-related illness for those without air-
conditioning or those outdoors for an extended period.

Precautionary/preparedness actions...

A heat advisory means that a period of high temperatures is
expected. The combination of high temperatures and high humidity
will create a situation in which heat illnesses are possible.

Take extra precautions if you work or spend time outside. When
possible... reschedule strenuous activities to early morning or
evening. Know the signs and symptoms of heat exhaustion and heat
stroke. Wear light weight and loose fitting clothing when
possible and drink plenty of water.

To reduce risk during outdoor work... the occupational safety and
health administration recommends scheduling frequent rest breaks
in shaded or air conditioned environments. Anyone overcome by
heat should be moved to a cool and shaded location. Heat stroke
is an emergency - call 911.